createdAt,value
2022-12-22T00:00:32.250Z,55.35
2022-12-22T00:03:19.956Z,44.05
2022-12-22T00:06:07.292Z,54.80
2022-12-22T00:08:55.592Z,53.35
2022-12-22T00:11:45.963Z,52.47
2022-12-22T00:14:33.620Z,63.28
2022-12-22T00:17:22.827Z,59.95
2022-12-22T00:20:15.065Z,96.20
2022-12-22T00:23:05.738Z,73.50
2022-12-22T00:25:53.036Z,82.68
2022-12-22T00:28:40.281Z,66.70
2022-12-22T00:31:28.042Z,88.13
2022-12-22T00:34:15.575Z,64.33
2022-12-22T00:37:03.670Z,57.17
2022-12-22T00:39:51.187Z,52.47
2022-12-22T00:42:38.550Z,77.03
2022-12-22T00:45:26.768Z,50.78
2022-12-22T00:48:14.229Z,189.15
2022-12-22T00:51:03.001Z,50.72
2022-12-22T00:53:50.918Z,63.45
2022-12-22T00:56:38.188Z,47.95
2022-12-22T00:59:26.272Z,56.05
2022-12-22T01:02:13.950Z,52.85
2022-12-22T01:05:01.506Z,47.80
2022-12-22T01:07:49.631Z,41.30
2022-12-22T01:10:46.873Z,37.60
2022-12-22T01:13:37.945Z,41.53
2022-12-22T01:16:25.744Z,70.50
2022-12-22T01:19:13.308Z,69.68
2022-12-22T01:22:01.009Z,47.65
2022-12-22T01:24:50.529Z,37.08
2022-12-22T01:27:38.290Z,33.22
2022-12-22T01:30:26.612Z,38.80
2022-12-22T01:33:14.249Z,43.30
2022-12-22T01:36:01.887Z,36.03
2022-12-22T01:38:49.314Z,38.80
2022-12-22T01:41:40.627Z,49.45
2022-12-22T01:44:37.485Z,59.75
2022-12-22T01:47:49.145Z,44.60
2022-12-22T01:50:53.606Z,35.13
2022-12-22T01:53:47.093Z,27.30
2022-12-22T01:56:34.712Z,31.80
2022-12-22T01:59:24.366Z,27.77
2022-12-22T02:02:12.212Z,35.63
2022-12-22T02:05:07.262Z,34.55
2022-12-22T02:08:35.543Z,25.45
2022-12-22T02:12:06.099Z,26.95
2022-12-22T02:15:00.348Z,29.90
2022-12-22T02:18:03.224Z,26.52
2022-12-22T02:21:34.026Z,23.10
2022-12-22T02:25:00.193Z,23.40
2022-12-22T02:27:49.098Z,20.80
2022-12-22T02:30:36.667Z,24.35
2022-12-22T02:33:24.631Z,27.83
2022-12-22T02:36:42.625Z,25.92
2022-12-22T02:40:18.462Z,25.45
2022-12-22T02:43:53.267Z,21.05
2022-12-22T02:47:02.813Z,30.92
2022-12-22T02:50:56.105Z,29.80
2022-12-22T02:53:51.813Z,22.98
2022-12-22T02:56:39.965Z,20.75
2022-12-22T02:59:27.083Z,23.75
2022-12-22T03:02:14.993Z,24.17
2022-12-22T03:05:02.633Z,22.63
2022-12-22T03:07:50.101Z,17.63
2022-12-22T03:10:37.667Z,24.15
2022-12-22T03:13:25.269Z,39.08
2022-12-22T03:16:12.854Z,25.20
2022-12-22T03:19:00.809Z,23.17
2022-12-22T03:21:48.623Z,44.70
2022-12-22T03:24:36.009Z,23.40
2022-12-22T03:27:05.143Z,23.73
2022-12-22T03:29:34.247Z,21.88
2022-12-22T03:32:03.996Z,21.38
2022-12-22T03:34:33.145Z,20.33
2022-12-22T03:37:02.229Z,21.88
2022-12-22T03:39:31.554Z,15.75
2022-12-22T03:42:18.952Z,24.58
2022-12-22T03:45:06.367Z,22.50
2022-12-22T03:47:35.465Z,20.30
2022-12-22T03:50:04.641Z,23.20
2022-12-22T03:52:34.868Z,20.17
2022-12-22T03:55:03.958Z,16.02
2022-12-22T03:57:33.095Z,22.25
2022-12-22T04:00:02.281Z,17.33
2022-12-22T04:02:31.431Z,24.83
2022-12-22T04:05:00.601Z,25.80
2022-12-22T04:07:29.787Z,25.08
2022-12-22T04:10:17.840Z,19.02
2022-12-22T04:12:57.486Z,24.88
2022-12-22T04:15:30.263Z,19.15
2022-12-22T04:18:01.493Z,19.83
2022-12-22T04:20:30.969Z,22.50
2022-12-22T04:25:48.260Z,17.67
2022-12-22T04:28:17.697Z,19.95
2022-12-22T04:30:46.884Z,21.60
2022-12-22T04:33:16.209Z,17.00
2022-12-22T04:35:49.332Z,22.73
2022-12-22T04:38:21.533Z,26.70
2022-12-22T04:41:00.027Z,22.05
2022-12-22T04:43:41.347Z,22.25
2022-12-22T04:46:16.128Z,13.75
2022-12-22T04:48:54.667Z,16.35
2022-12-22T04:51:32.179Z,15.07
2022-12-22T04:54:07.045Z,20.02
2022-12-22T04:56:36.275Z,14.20
2022-12-22T04:59:05.772Z,15.65
2022-12-22T05:01:35.279Z,22.70
2022-12-22T05:04:04.586Z,18.73
2022-12-22T05:06:33.838Z,18.70
2022-12-22T05:11:48.934Z,19.40
2022-12-22T05:14:18.223Z,19.20
2022-12-22T05:16:47.488Z,17.50
2022-12-22T05:19:17.028Z,17.33
2022-12-22T05:21:46.586Z,23.83
2022-12-22T05:24:15.904Z,17.38
2022-12-22T05:26:45.169Z,18.02
2022-12-22T05:29:14.396Z,14.52
2022-12-22T05:31:47.172Z,20.05
2022-12-22T05:34:16.902Z,16.30
2022-12-22T05:36:46.169Z,16.85
2022-12-22T05:39:15.356Z,31.65
2022-12-22T05:41:44.625Z,13.70
2022-12-22T05:44:13.811Z,18.15
2022-12-22T05:46:43.761Z,17.92
2022-12-22T05:49:13.070Z,12.60
2022-12-22T05:51:42.301Z,16.48
2022-12-22T05:54:13.331Z,17.25
2022-12-22T05:56:42.865Z,13.20
2022-12-22T05:59:13.446Z,25.25
2022-12-22T06:01:42.726Z,19.63
2022-12-22T06:04:12.189Z,14.68
2022-12-22T06:06:41.551Z,17.92
2022-12-22T06:09:11.228Z,17.42
2022-12-22T06:11:40.422Z,14.93
2022-12-22T06:14:09.728Z,13.30
2022-12-22T06:16:39.099Z,17.98
2022-12-22T06:19:08.503Z,20.27
2022-12-22T06:21:37.736Z,13.60
2022-12-22T06:24:07.357Z,15.38
2022-12-22T06:26:36.771Z,21.17
2022-12-22T06:29:06.126Z,20.98
2022-12-22T06:31:35.490Z,13.43
2022-12-22T06:34:04.921Z,12.73
2022-12-22T06:36:35.551Z,19.38
2022-12-22T06:39:04.856Z,20.55
2022-12-22T06:41:52.370Z,16.70
2022-12-22T06:44:21.616Z,14.20
2022-12-22T06:46:50.920Z,13.13
2022-12-22T06:49:20.741Z,12.70
2022-12-22T06:54:32.708Z,15.07
2022-12-22T06:57:02.137Z,15.95
2022-12-22T06:59:31.356Z,14.68
2022-12-22T07:02:00.711Z,12.43
2022-12-22T07:04:30.907Z,16.48
2022-12-22T07:07:00.172Z,12.68
2022-12-22T07:09:29.717Z,17.02
2022-12-22T07:11:58.869Z,19.27
2022-12-22T07:14:27.926Z,18.25
2022-12-22T07:16:57.209Z,18.90
2022-12-22T07:19:26.319Z,19.92
2022-12-22T07:21:55.461Z,15.63
2022-12-22T07:24:26.800Z,14.43
2022-12-22T07:26:56.042Z,15.13
2022-12-22T07:29:25.412Z,18.45
2022-12-22T07:31:54.808Z,21.98
2022-12-22T07:34:23.904Z,15.07
2022-12-22T07:36:53.088Z,22.40
2022-12-22T07:39:22.209Z,20.80
2022-12-22T07:42:09.449Z,23.20
2022-12-22T07:44:38.607Z,14.43
2022-12-22T07:47:07.760Z,13.55
2022-12-22T07:49:55.144Z,16.20
2022-12-22T07:52:24.362Z,20.03
2022-12-22T07:54:53.444Z,14.60
2022-12-22T07:57:22.521Z,13.60
2022-12-22T07:59:51.642Z,17.08
2022-12-22T08:02:20.800Z,19.50
2022-12-22T08:04:50.158Z,16.65
2022-12-22T08:07:19.425Z,20.48
2022-12-22T08:09:48.975Z,20.20
2022-12-22T08:12:18.319Z,15.52
2022-12-22T08:14:47.511Z,22.40
2022-12-22T08:17:16.716Z,23.05
2022-12-22T08:19:46.077Z,17.05
2022-12-22T08:22:15.284Z,22.67
2022-12-22T08:24:44.485Z,20.92
2022-12-22T08:27:26.005Z,17.58
2022-12-22T08:30:03.383Z,16.95
2022-12-22T08:32:32.641Z,21.05
2022-12-22T08:35:01.895Z,23.27
2022-12-22T08:37:36.053Z,19.85
2022-12-22T08:40:11.015Z,16.67
2022-12-22T08:42:41.337Z,19.35
2022-12-22T08:45:12.384Z,18.38
2022-12-22T08:47:42.301Z,21.67
2022-12-22T08:50:12.306Z,15.85
2022-12-22T08:52:41.483Z,22.33
2022-12-22T08:55:11.627Z,15.10
2022-12-22T08:57:40.861Z,19.05
2022-12-22T09:00:13.939Z,17.33
2022-12-22T09:02:43.272Z,22.65
2022-12-22T09:05:12.457Z,20.02
2022-12-22T09:07:42.167Z,16.17
2022-12-22T09:10:12.734Z,20.17
2022-12-22T09:12:45.263Z,21.50
2022-12-22T09:15:15.793Z,19.38
2022-12-22T09:17:45.024Z,16.25
2022-12-22T09:20:15.159Z,22.83
2022-12-22T09:22:44.496Z,13.15
2022-12-22T09:25:15.197Z,17.95
2022-12-22T09:27:44.436Z,12.43
2022-12-22T09:30:14.371Z,26.55
2022-12-22T09:32:43.682Z,22.73
2022-12-22T09:35:12.949Z,19.23
2022-12-22T09:37:42.194Z,16.98
2022-12-22T09:40:12.593Z,15.27
2022-12-22T09:42:42.018Z,15.10
2022-12-22T09:45:21.061Z,22.95
2022-12-22T09:47:54.888Z,25.23
2022-12-22T09:50:27.975Z,11.05
2022-12-22T09:53:09.470Z,34.42
2022-12-22T09:55:44.263Z,18.13
2022-12-22T09:58:29.759Z,25.48
2022-12-22T10:01:22.434Z,24.65
2022-12-22T10:04:06.886Z,15.95
2022-12-22T10:07:02.220Z,33.20
2022-12-22T10:09:49.721Z,29.70
2022-12-22T10:12:26.633Z,48.47
2022-12-22T10:14:56.841Z,60.67
2022-12-22T10:17:35.660Z,35.78
2022-12-22T10:20:28.566Z,28.55
2022-12-22T10:23:09.347Z,46.08
2022-12-22T10:26:26.049Z,49.42
2022-12-22T10:29:10.223Z,34.00
2022-12-22T10:32:13.327Z,36.60
2022-12-22T10:35:07.087Z,50.42
2022-12-22T10:37:41.987Z,42.13
2022-12-22T10:40:22.613Z,59.78
2022-12-22T10:42:57.294Z,54.40
2022-12-22T10:45:29.254Z,48.28
2022-12-22T10:47:59.867Z,54.35
2022-12-22T10:50:29.091Z,76.68
2022-12-22T10:53:00.012Z,53.10
2022-12-22T10:55:33.863Z,39.42
2022-12-22T10:58:30.855Z,52.00
2022-12-22T11:01:07.321Z,44.90
2022-12-22T11:03:36.636Z,67.15
2022-12-22T11:06:14.797Z,53.28
2022-12-22T11:08:50.961Z,90.32
2022-12-22T11:11:52.911Z,60.40
2022-12-22T11:14:28.905Z,56.30
2022-12-22T11:17:15.978Z,63.47
2022-12-22T11:20:04.605Z,77.40
2022-12-22T11:23:03.331Z,44.30
2022-12-22T11:26:01.200Z,50.08
2022-12-22T11:29:00.219Z,34.00
2022-12-22T11:31:41.479Z,61.92
2022-12-22T11:34:37.675Z,56.83
2022-12-22T11:37:21.574Z,56.50
2022-12-22T11:40:17.838Z,67.50
2022-12-22T11:43:50.025Z,69.68
2022-12-22T11:46:41.734Z,53.15
2022-12-22T11:49:46.576Z,148.55
2022-12-22T11:52:39.773Z,64.80
2022-12-22T11:55:32.035Z,51.63
2022-12-22T11:58:13.026Z,83.30
2022-12-22T12:01:24.110Z,60.25
2022-12-22T12:04:25.371Z,78.32
2022-12-22T12:07:31.661Z,82.25
2022-12-22T12:10:27.629Z,59.45
2022-12-22T12:13:37.456Z,59.30
2022-12-22T12:16:51.750Z,61.33
2022-12-22T12:19:51.839Z,68.07
2022-12-22T12:22:57.894Z,53.72
2022-12-22T12:25:50.453Z,58.90
2022-12-22T12:29:15.085Z,65.68
2022-12-22T12:32:24.911Z,98.30
2022-12-22T12:35:43.923Z,102.10
2022-12-22T12:42:09.919Z,84.05
2022-12-22T12:44:41.261Z,67.07
2022-12-22T12:47:32.824Z,59.58
2022-12-22T12:50:26.632Z,51.10
2022-12-22T12:53:06.456Z,57.40
2022-12-22T12:55:56.912Z,53.00
2022-12-22T12:58:40.783Z,76.22
2022-12-22T13:01:41.925Z,76.35
2022-12-22T13:04:11.695Z,68.80
2022-12-22T13:06:57.062Z,58.22
2022-12-22T13:09:50.556Z,43.85
2022-12-22T13:12:54.926Z,44.92
2022-12-22T13:15:42.485Z,76.30
2022-12-22T13:18:50.793Z,45.40
2022-12-22T13:24:28.570Z,63.28
2022-12-22T13:27:07.686Z,66.80
2022-12-22T13:29:48.492Z,75.80
2022-12-22T13:32:37.150Z,69.93
2022-12-22T13:35:34.639Z,74.47
2022-12-22T13:38:05.248Z,62.47
2022-12-22T13:40:45.022Z,57.33
2022-12-22T13:43:19.124Z,58.15
2022-12-22T13:45:55.452Z,62.25
2022-12-22T13:48:44.769Z,54.20
2022-12-22T13:51:39.422Z,53.05
2022-12-22T13:54:19.315Z,66.95
2022-12-22T13:56:57.639Z,50.17
2022-12-22T13:59:34.040Z,52.22
2022-12-22T14:02:16.555Z,49.13
2022-12-22T14:05:12.556Z,51.33
2022-12-22T14:07:41.929Z,52.35
2022-12-22T14:10:13.909Z,58.28
2022-12-22T14:12:47.520Z,65.78
2022-12-22T14:15:21.714Z,51.53
2022-12-22T14:17:53.122Z,66.80
2022-12-22T14:20:29.980Z,46.28
2022-12-22T14:23:18.945Z,57.92
2022-12-22T14:25:51.362Z,58.63
2022-12-22T14:28:51.683Z,55.75
2022-12-22T14:31:21.807Z,57.70
2022-12-22T14:34:06.311Z,44.78
2022-12-22T14:36:45.229Z,50.85
2022-12-22T14:39:26.867Z,48.78
2022-12-22T14:42:03.955Z,45.35
2022-12-22T14:44:38.690Z,51.28
2022-12-22T14:47:15.931Z,50.95
2022-12-22T14:49:54.030Z,47.00
2022-12-22T14:52:47.864Z,46.78
2022-12-22T14:55:43.118Z,49.72
2022-12-22T14:58:22.124Z,51.03
2022-12-22T15:01:15.111Z,48.88
2022-12-22T15:03:45.841Z,56.25
2022-12-22T15:06:29.318Z,67.88
2022-12-22T15:09:10.595Z,51.65
2022-12-22T15:11:46.999Z,54.80
2022-12-22T15:14:24.834Z,51.55
2022-12-22T15:17:02.825Z,58.35
2022-12-22T15:19:36.376Z,90.97
2022-12-22T15:22:09.398Z,45.40
2022-12-22T15:24:38.521Z,43.33
2022-12-22T15:27:07.734Z,47.75
2022-12-22T15:29:37.154Z,40.95
2022-12-22T15:32:12.986Z,47.45
2022-12-22T15:34:42.713Z,50.90
2022-12-22T15:37:14.855Z,48.83
2022-12-22T15:39:44.392Z,55.90
2022-12-22T15:42:13.541Z,60.85
2022-12-22T15:44:42.944Z,61.20
2022-12-22T15:47:13.936Z,78.18
2022-12-22T15:49:43.269Z,68.35
2022-12-22T15:52:14.205Z,68.82
2022-12-22T15:54:43.575Z,69.05
2022-12-22T15:57:15.695Z,76.95
2022-12-22T15:59:44.882Z,73.30
2022-12-22T16:02:15.714Z,85.38
2022-12-22T16:04:45.055Z,87.68
2022-12-22T16:07:14.608Z,84.82
2022-12-22T16:09:47.995Z,78.00
2022-12-22T16:12:21.293Z,64.72
2022-12-22T16:14:56.352Z,81.40
2022-12-22T16:17:30.258Z,77.03
2022-12-22T16:20:00.783Z,76.55
2022-12-22T16:22:37.430Z,73.65
2022-12-22T16:25:14.478Z,78.03
2022-12-22T16:27:45.079Z,77.18
2022-12-22T16:30:26.957Z,77.68
2022-12-22T16:32:56.969Z,66.50
2022-12-22T16:35:29.802Z,62.00
2022-12-22T16:38:01.623Z,63.90
2022-12-22T16:40:34.505Z,56.88
2022-12-22T16:43:51.224Z,65.00
2022-12-22T16:46:25.732Z,72.40
2022-12-22T16:49:02.217Z,73.80
2022-12-22T16:51:35.468Z,69.65
2022-12-22T16:54:05.469Z,72.03
2022-12-22T16:56:35.807Z,61.13
2022-12-22T16:59:05.570Z,65.40
2022-12-22T17:01:58.601Z,56.33
2022-12-22T17:04:32.102Z,56.97
2022-12-22T17:07:04.429Z,58.10
2022-12-22T17:09:51.701Z,57.50
2022-12-22T17:12:29.547Z,55.03
2022-12-22T17:15:00.203Z,51.83
2022-12-22T17:17:35.379Z,57.58
2022-12-22T17:20:08.904Z,53.90
2022-12-22T17:22:39.297Z,45.45
2022-12-22T17:25:09.552Z,50.47
2022-12-22T17:27:38.661Z,45.42
2022-12-22T17:30:20.369Z,51.22
2022-12-22T17:32:50.227Z,43.25
2022-12-22T17:35:24.766Z,39.45
2022-12-22T17:37:54.380Z,41.47
2022-12-22T17:40:35.206Z,251.30
2022-12-22T17:43:04.412Z,118.05
2022-12-22T17:45:33.531Z,70.07
2022-12-22T17:48:08.173Z,55.92
2022-12-22T17:50:37.629Z,38.10
2022-12-22T17:53:11.340Z,37.80
2022-12-22T17:56:07.071Z,42.42
2022-12-22T17:58:29.806Z,38.63
2022-12-22T18:00:59.039Z,44.67
2022-12-22T18:03:28.297Z,43.72
2022-12-22T18:05:57.542Z,39.70
2022-12-22T18:08:26.783Z,35.95
2022-12-22T18:10:56.520Z,47.22
2022-12-22T18:13:27.143Z,40.80
2022-12-22T18:15:56.798Z,41.45
2022-12-22T18:18:26.045Z,40.90
2022-12-22T18:21:06.652Z,38.92
2022-12-22T18:23:40.267Z,37.13
2022-12-22T18:26:21.658Z,41.10
2022-12-22T18:28:51.996Z,41.50
2022-12-22T18:31:22.361Z,43.58
2022-12-22T18:33:52.820Z,42.20
2022-12-22T18:36:34.714Z,42.05
2022-12-22T18:39:07.550Z,39.85
2022-12-22T18:41:39.344Z,42.22
2022-12-22T18:44:18.472Z,44.55
2022-12-22T18:46:48.130Z,37.60
2022-12-22T18:49:17.816Z,37.60
2022-12-22T18:51:47.856Z,41.20
2022-12-22T18:54:33.420Z,41.42
2022-12-22T18:57:02.549Z,50.22
2022-12-22T18:59:33.471Z,44.67
2022-12-22T19:02:26.552Z,38.28
2022-12-22T19:04:57.656Z,43.20
2022-12-22T19:07:27.917Z,53.08
2022-12-22T19:09:57.676Z,39.50
2022-12-22T19:12:29.702Z,36.63
2022-12-22T19:15:07.251Z,43.20
2022-12-22T19:17:36.459Z,44.17
2022-12-22T19:20:06.593Z,40.78
2022-12-22T19:22:35.737Z,42.70
2022-12-22T19:25:04.966Z,42.72
2022-12-22T19:27:34.245Z,41.35
2022-12-22T19:30:04.824Z,41.17
2022-12-22T19:32:49.325Z,44.38
2022-12-22T19:35:22.051Z,38.03
2022-12-22T19:37:54.179Z,47.70
2022-12-22T19:40:30.800Z,44.10
2022-12-22T19:43:01.333Z,35.58
2022-12-22T19:45:38.035Z,43.08
2022-12-22T19:48:21.567Z,51.15
2022-12-22T19:50:51.894Z,41.45
2022-12-22T19:53:22.703Z,42.80
2022-12-22T19:55:58.041Z,42.72
2022-12-22T19:58:40.812Z,48.85
2022-12-22T20:01:13.146Z,45.15
2022-12-22T20:03:42.446Z,37.33
2022-12-22T20:06:11.869Z,45.72
2022-12-22T20:08:41.691Z,52.45
2022-12-22T20:11:21.594Z,38.75
2022-12-22T20:13:50.889Z,38.15
2022-12-22T20:16:20.099Z,46.20
2022-12-22T20:18:49.303Z,40.67
2022-12-22T20:21:27.919Z,61.95
2022-12-22T20:26:29.229Z,40.15
2022-12-22T20:28:58.347Z,38.47
2022-12-22T20:31:29.320Z,41.20
2022-12-22T20:33:58.559Z,43.58
2022-12-22T20:36:32.823Z,43.13
2022-12-22T20:39:03.507Z,41.05
2022-12-22T20:41:32.751Z,42.22
2022-12-22T20:44:01.857Z,42.88
2022-12-22T20:46:32.436Z,38.33
2022-12-22T20:49:05.445Z,41.83
2022-12-22T20:51:36.035Z,41.33
2022-12-22T20:54:05.314Z,41.22
2022-12-22T20:56:40.366Z,41.38
2022-12-22T20:59:25.494Z,53.25
2022-12-22T21:01:54.968Z,43.55
2022-12-22T21:04:24.227Z,47.42
2022-12-22T21:06:58.356Z,36.15
2022-12-22T21:09:28.567Z,38.60
2022-12-22T21:11:57.675Z,44.42
2022-12-22T21:14:26.794Z,45.05
2022-12-22T21:16:56.058Z,39.05
2022-12-22T21:19:25.230Z,43.40
2022-12-22T21:21:54.844Z,39.38
2022-12-22T21:24:23.984Z,40.55
2022-12-22T21:26:56.505Z,49.53
2022-12-22T21:29:28.472Z,46.33
2022-12-22T21:31:57.863Z,47.45
2022-12-22T21:34:26.939Z,50.33
2022-12-22T21:37:03.953Z,46.63
2022-12-22T21:39:45.706Z,48.35
2022-12-22T21:42:20.897Z,52.10
2022-12-22T21:44:51.301Z,52.65
2022-12-22T21:47:22.101Z,46.63
2022-12-22T21:49:51.382Z,54.13
2022-12-22T21:52:20.505Z,54.33
2022-12-22T21:54:49.742Z,54.92
2022-12-22T21:57:18.933Z,50.00
2022-12-22T21:59:48.056Z,51.97
2022-12-22T22:02:20.694Z,51.47
2022-12-22T22:04:54.617Z,49.78
2022-12-22T22:07:24.665Z,87.72
2022-12-22T22:09:55.085Z,70.18
2022-12-22T22:12:37.899Z,56.72
2022-12-22T22:15:08.931Z,61.15
2022-12-22T22:17:38.250Z,70.05
2022-12-22T22:20:10.909Z,80.45
2022-12-22T22:22:39.990Z,83.93
2022-12-22T22:25:10.464Z,90.40
2022-12-22T22:27:45.776Z,86.22
2022-12-22T22:30:27.404Z,72.60
2022-12-22T22:32:58.308Z,62.28
2022-12-22T22:35:29.416Z,60.13
2022-12-22T22:37:58.642Z,61.65
2022-12-22T22:40:27.729Z,62.35
2022-12-22T22:42:57.967Z,58.55
2022-12-22T22:45:27.145Z,58.28
2022-12-22T22:47:56.413Z,63.67
2022-12-22T22:50:25.709Z,63.28
2022-12-22T22:52:54.788Z,55.30
2022-12-22T22:55:24.162Z,63.53
2022-12-22T22:57:53.279Z,62.55
2022-12-22T23:00:22.910Z,60.08
2022-12-22T23:02:52.223Z,61.03
2022-12-22T23:05:23.174Z,51.13
2022-12-22T23:07:52.633Z,49.13
2022-12-22T23:10:22.417Z,50.20
2022-12-22T23:12:51.482Z,51.80
2022-12-22T23:15:20.637Z,47.15
2022-12-22T23:17:51.859Z,49.72
2022-12-22T23:20:21.270Z,45.90
2022-12-22T23:22:50.349Z,48.63
2022-12-22T23:25:19.468Z,47.63
2022-12-22T23:27:48.521Z,49.53
2022-12-22T23:30:17.764Z,47.20
2022-12-22T23:32:46.913Z,48.40
2022-12-22T23:35:16.071Z,50.20
2022-12-22T23:37:45.152Z,49.38
2022-12-22T23:40:50.683Z,60.78
2022-12-22T23:43:05.195Z,81.70
2022-12-22T23:45:35.353Z,47.88
2022-12-22T23:48:05.252Z,72.50
2022-12-22T23:50:34.474Z,54.10
2022-12-22T23:53:03.874Z,54.55
2022-12-22T23:55:33.168Z,54.47
2022-12-22T23:58:02.237Z,67.68
